createdAt,value
2017-11-05T00:01:46.436Z,8.40
2017-11-05T00:04:16.457Z,8.40
2017-11-05T00:06:44.029Z,8.40
2017-11-05T00:09:11.621Z,8.40
2017-11-05T00:11:39.957Z,8.40
2017-11-05T00:14:07.549Z,8.40
2017-11-05T00:16:35.880Z,8.50
2017-11-05T00:19:03.463Z,8.40
2017-11-05T00:21:31.023Z,8.50
2017-11-05T00:23:58.645Z,8.50
2017-11-05T00:26:26.208Z,8.50
2017-11-05T00:28:53.776Z,8.50
2017-11-05T00:31:21.368Z,8.50
2017-11-05T00:33:48.931Z,8.50
2017-11-05T00:36:16.524Z,8.50
2017-11-05T00:38:44.856Z,8.50
2017-11-05T00:41:12.456Z,8.50
2017-11-05T00:43:40.788Z,8.50
2017-11-05T00:46:08.376Z,8.50
2017-11-05T00:48:35.935Z,8.60
2017-11-05T00:51:03.600Z,8.60
2017-11-05T00:53:31.164Z,8.50
2017-11-05T00:55:58.740Z,8.50
2017-11-05T00:58:27.101Z,8.50
2017-11-05T01:00:54.864Z,8.50
2017-11-05T01:03:23.196Z,8.50
2017-11-05T01:05:50.760Z,8.50
2017-11-05T01:08:18.349Z,8.50
2017-11-05T01:10:46.132Z,8.50
2017-11-05T01:13:16.114Z,8.60
2017-11-05T01:15:43.712Z,8.50
2017-11-05T01:18:11.300Z,8.60
2017-11-05T01:20:39.640Z,8.60
2017-11-05T01:23:07.228Z,8.50
2017-11-05T01:25:35.563Z,8.50
2017-11-05T01:28:03.157Z,8.50
2017-11-05T01:30:30.737Z,8.50
2017-11-05T01:32:59.091Z,8.50
2017-11-05T01:35:26.657Z,8.50
2017-11-05T01:37:54.261Z,8.50
2017-11-05T01:40:21.824Z,8.50
2017-11-05T01:42:49.388Z,8.50
2017-11-05T01:45:16.988Z,8.40
2017-11-05T01:47:44.556Z,8.40
2017-11-05T01:50:14.577Z,8.40
2017-11-05T01:52:43.661Z,8.30
2017-11-05T01:55:11.260Z,8.30
2017-11-05T01:57:38.832Z,8.30
2017-11-05T02:00:06.420Z,8.20
2017-11-05T02:02:33.996Z,8.10
2017-11-05T02:05:01.584Z,8.10
2017-11-05T02:07:29.916Z,8.00
2017-11-05T02:09:57.679Z,7.90
2017-11-05T02:12:25.546Z,7.90
2017-11-05T02:14:54.335Z,7.90
2017-11-05T02:17:22.305Z,7.90
2017-11-05T02:19:49.936Z,7.90
2017-11-05T02:22:17.585Z,7.90
2017-11-05T02:24:46.148Z,7.90
2017-11-05T02:27:14.646Z,7.90
2017-11-05T02:29:42.205Z,7.90
2017-11-05T02:32:09.796Z,7.80
2017-11-05T02:34:37.363Z,7.90
2017-11-05T02:37:04.956Z,7.90
2017-11-05T02:39:32.533Z,7.90
2017-11-05T02:42:00.129Z,7.90
2017-11-05T02:44:27.704Z,7.90
2017-11-05T02:46:55.320Z,7.90
2017-11-05T02:49:22.893Z,7.90
2017-11-05T02:51:50.544Z,7.90
2017-11-05T02:54:18.901Z,7.80
2017-11-05T02:56:46.468Z,7.80
2017-11-05T02:59:15.804Z,7.90
2017-11-05T03:01:44.141Z,8.00
2017-11-05T03:04:11.705Z,8.00
2017-11-05T03:06:39.396Z,8.00
2017-11-05T03:09:06.964Z,8.00
2017-11-05T03:11:35.324Z,8.00
2017-11-05T03:14:02.893Z,8.00
2017-11-05T03:16:31.248Z,8.10
2017-11-05T03:18:58.813Z,8.10
2017-11-05T03:21:26.489Z,8.20
2017-11-05T03:23:55.572Z,8.30
2017-11-05T03:26:23.348Z,8.30
2017-11-05T03:28:50.912Z,8.30
2017-11-05T03:31:18.760Z,8.20
2017-11-05T03:33:46.344Z,8.30
2017-11-05T03:36:14.836Z,8.30
2017-11-05T03:38:43.272Z,8.30
2017-11-05T03:41:10.844Z,8.30
2017-11-05T03:43:38.524Z,8.30
2017-11-05T03:46:06.084Z,8.40
2017-11-05T03:48:33.681Z,8.30
2017-11-05T03:51:01.253Z,8.30
2017-11-05T03:53:29.008Z,8.30
2017-11-05T03:55:56.580Z,8.40
2017-11-05T03:58:24.153Z,8.40
2017-11-05T04:00:51.753Z,8.40
2017-11-05T04:03:19.321Z,8.40
2017-11-05T04:05:46.912Z,8.50
2017-11-05T04:08:15.589Z,8.50
2017-11-05T04:10:43.945Z,8.40
2017-11-05T04:13:11.508Z,8.40
2017-11-05T04:15:39.092Z,8.40
2017-11-05T04:18:07.427Z,8.30
2017-11-05T04:20:35.024Z,8.30
2017-11-05T04:23:03.357Z,8.20
2017-11-05T04:25:30.948Z,8.20
2017-11-05T04:27:58.608Z,8.20
2017-11-05T04:30:26.941Z,8.10
2017-11-05T04:32:54.523Z,8.10
2017-11-05T04:35:22.089Z,8.10
2017-11-05T04:37:49.685Z,8.00
2017-11-05T04:40:18.033Z,8.00
2017-11-05T04:42:45.624Z,8.00
2017-11-05T04:45:14.877Z,7.90
2017-11-05T04:47:42.567Z,7.80
2017-11-05T04:50:10.137Z,7.90
2017-11-05T04:52:37.706Z,7.90
2017-11-05T04:55:06.068Z,8.10
2017-11-05T04:57:33.632Z,8.00
2017-11-05T05:00:01.220Z,8.20
2017-11-05T05:02:29.553Z,8.50
2017-11-05T05:04:57.143Z,8.40
2017-11-05T05:07:25.481Z,8.70
2017-11-05T05:09:53.173Z,8.70
2017-11-05T05:12:21.840Z,8.90
2017-11-05T05:14:49.629Z,8.90
2017-11-05T05:17:17.187Z,9.00
2017-11-05T05:19:44.760Z,9.10
2017-11-05T05:22:13.117Z,9.20
2017-11-05T05:24:40.697Z,9.20
2017-11-05T05:27:08.280Z,9.20
2017-11-05T05:29:35.856Z,9.30
2017-11-05T05:32:03.440Z,9.30
2017-11-05T05:34:31.008Z,9.40
2017-11-05T05:36:58.693Z,9.40
2017-11-05T05:39:26.256Z,9.50
2017-11-05T05:41:53.848Z,9.40
2017-11-05T05:44:21.476Z,9.40
2017-11-05T05:46:50.574Z,9.30
2017-11-05T05:49:18.132Z,9.30
2017-11-05T05:51:45.729Z,9.20
2017-11-05T05:54:15.368Z,9.30
2017-11-05T05:56:42.963Z,9.20
2017-11-05T05:59:10.525Z,9.20
2017-11-05T06:01:38.113Z,9.20
2017-11-05T06:04:06.444Z,9.30
2017-11-05T06:06:34.033Z,9.30
2017-11-05T06:09:01.596Z,9.30
2017-11-05T06:11:29.981Z,9.20
2017-11-05T06:13:58.312Z,9.20
2017-11-05T06:16:25.872Z,9.20
2017-11-05T06:18:53.466Z,9.10
2017-11-05T06:21:21.033Z,9.10
2017-11-05T06:23:49.408Z,9.10
2017-11-05T06:26:16.972Z,9.00
2017-11-05T06:28:45.349Z,9.10
2017-11-05T06:31:14.661Z,9.10
2017-11-05T06:33:43.229Z,9.00
2017-11-05T06:36:10.892Z,9.00
2017-11-05T06:38:38.460Z,8.90
2017-11-05T06:41:06.060Z,8.90
2017-11-05T06:43:33.677Z,8.90
2017-11-05T06:46:01.269Z,8.90
2017-11-05T06:48:28.901Z,8.90
2017-11-05T06:50:56.492Z,8.80
2017-11-05T06:53:24.840Z,8.60
2017-11-05T06:55:52.432Z,8.60
2017-11-05T06:58:20.769Z,8.50
2017-11-05T07:00:48.384Z,8.50
2017-11-05T07:03:17.109Z,8.50
2017-11-05T07:05:44.672Z,8.50
2017-11-05T07:08:12.269Z,8.50
2017-11-05T07:10:40.600Z,8.60
2017-11-05T07:13:08.188Z,8.60
2017-11-05T07:15:35.756Z,8.60
2017-11-05T07:18:03.348Z,8.70
2017-11-05T07:20:30.912Z,8.80
2017-11-05T07:22:58.503Z,8.80
2017-11-05T07:25:26.069Z,8.90
2017-11-05T07:27:53.659Z,8.90
2017-11-05T07:30:21.233Z,8.90
2017-11-05T07:32:49.584Z,9.00
2017-11-05T07:35:17.144Z,9.00
2017-11-05T07:37:44.736Z,9.00
2017-11-05T07:40:13.984Z,9.10
2017-11-05T07:42:41.572Z,9.10
2017-11-05T07:45:09.241Z,9.20
2017-11-05T07:47:36.831Z,9.30
2017-11-05T07:50:05.204Z,9.40
2017-11-05T07:52:33.576Z,9.50
2017-11-05T07:55:02.272Z,9.50
2017-11-05T07:57:30.605Z,9.60
2017-11-05T07:59:58.197Z,9.60
2017-11-05T08:02:26.524Z,9.70
2017-11-05T08:04:54.108Z,9.70
2017-11-05T08:07:21.672Z,9.80
2017-11-05T08:09:49.452Z,9.90
2017-11-05T08:12:17.013Z,9.90
2017-11-05T08:14:44.585Z,9.90
2017-11-05T08:17:13.972Z,10.00
2017-11-05T08:19:41.548Z,9.90
2017-11-05T08:22:09.907Z,10.00
2017-11-05T08:24:37.581Z,10.00
2017-11-05T08:27:05.177Z,10.00
2017-11-05T08:29:32.796Z,10.10
2017-11-05T08:32:00.421Z,10.10
2017-11-05T08:34:28.024Z,10.10
2017-11-05T08:36:55.600Z,10.10
2017-11-05T08:39:24.068Z,10.20
2017-11-05T08:41:51.633Z,10.20
2017-11-05T08:44:20.108Z,10.30
2017-11-05T08:46:47.681Z,10.30
2017-11-05T08:49:16.276Z,10.50
2017-11-05T08:51:44.613Z,10.50
2017-11-05T08:54:13.160Z,10.60
2017-11-05T08:56:40.733Z,10.60
2017-11-05T08:59:08.299Z,10.50
2017-11-05T09:01:35.912Z,10.50
2017-11-05T09:04:04.296Z,10.50
2017-11-05T09:06:32.676Z,10.50
2017-11-05T09:09:01.140Z,10.60
2017-11-05T09:11:28.940Z,10.60
2017-11-05T09:13:56.568Z,10.60
2017-11-05T09:16:24.232Z,10.70
2017-11-05T09:18:51.896Z,10.70
2017-11-05T09:21:19.460Z,10.80
2017-11-05T09:23:47.081Z,10.90
2017-11-05T09:26:15.576Z,10.90
2017-11-05T09:28:43.144Z,11.00
2017-11-05T09:31:10.757Z,11.10
2017-11-05T09:33:38.327Z,11.20
2017-11-05T09:36:06.039Z,11.30
2017-11-05T09:38:33.608Z,11.20
2017-11-05T09:41:01.185Z,11.20
2017-11-05T09:43:29.648Z,11.30
2017-11-05T09:45:57.265Z,11.30
2017-11-05T09:48:24.880Z,11.30
2017-11-05T09:50:53.215Z,11.20
2017-11-05T09:53:20.840Z,11.20
2017-11-05T09:55:49.178Z,11.10
2017-11-05T09:58:16.851Z,11.10
2017-11-05T10:00:44.441Z,11.00
2017-11-05T10:03:13.733Z,11.00
2017-11-05T10:05:42.097Z,11.00
2017-11-05T10:08:09.668Z,11.00
2017-11-05T10:10:38.029Z,11.20
2017-11-05T10:13:05.699Z,11.20
2017-11-05T10:15:33.289Z,11.20
2017-11-05T10:18:00.857Z,11.30
2017-11-05T10:20:28.449Z,11.20
2017-11-05T10:22:56.017Z,11.40
2017-11-05T10:25:23.609Z,11.50
2017-11-05T10:27:51.953Z,11.80
2017-11-05T10:30:19.537Z,11.80
2017-11-05T10:32:47.925Z,11.80
2017-11-05T10:35:17.231Z,11.80
2017-11-05T10:37:45.569Z,11.80
2017-11-05T10:40:14.856Z,11.80
2017-11-05T10:42:42.460Z,11.80
2017-11-05T10:45:10.125Z,11.80
2017-11-05T10:47:37.696Z,11.70
2017-11-05T10:50:06.092Z,11.70
2017-11-05T10:52:34.728Z,11.70
2017-11-05T10:55:02.321Z,11.70
2017-11-05T10:57:30.664Z,11.70
2017-11-05T10:59:58.353Z,11.70
2017-11-05T11:02:25.920Z,11.70
2017-11-05T11:04:53.512Z,11.50
2017-11-05T11:07:21.085Z,11.40
2017-11-05T11:09:48.688Z,11.30
2017-11-05T11:12:17.872Z,11.20
2017-11-05T11:14:45.487Z,11.20
2017-11-05T11:17:15.545Z,10.90
2017-11-05T11:19:43.446Z,10.80
2017-11-05T11:22:11.055Z,10.70
2017-11-05T11:24:38.634Z,10.70
2017-11-05T11:27:06.234Z,10.70
2017-11-05T11:29:33.927Z,10.60
2017-11-05T11:32:01.524Z,10.70
2017-11-05T11:34:29.128Z,10.80
2017-11-05T11:36:57.589Z,10.80
2017-11-05T11:39:25.192Z,10.80
2017-11-05T11:41:52.804Z,10.90
2017-11-05T11:44:20.371Z,10.90
2017-11-05T11:46:47.969Z,10.90
2017-11-05T11:49:17.565Z,10.80
2017-11-05T11:51:46.540Z,10.80
2017-11-05T11:54:15.025Z,10.70
2017-11-05T11:56:42.615Z,10.70
2017-11-05T11:59:10.193Z,10.60
2017-11-05T12:01:37.828Z,10.60
2017-11-05T12:04:06.197Z,10.50
2017-11-05T12:06:34.584Z,10.30
2017-11-05T12:09:02.928Z,10.30
2017-11-05T12:11:30.789Z,10.30
2017-11-05T12:13:59.086Z,10.00
2017-11-05T12:16:26.811Z,9.80
2017-11-05T12:18:54.404Z,9.70
2017-11-05T12:21:21.964Z,9.60
2017-11-05T12:23:49.638Z,9.50
2017-11-05T12:26:17.206Z,9.50
2017-11-05T12:28:45.561Z,9.50
2017-11-05T12:31:14.877Z,9.50
2017-11-05T12:33:42.469Z,9.50
2017-11-05T12:36:10.096Z,9.50
2017-11-05T12:38:37.725Z,9.50
2017-11-05T12:41:05.293Z,9.50
2017-11-05T12:43:33.006Z,9.50
2017-11-05T12:46:00.588Z,9.50
2017-11-05T12:48:28.310Z,9.50
2017-11-05T12:50:55.951Z,9.50
2017-11-05T12:53:23.707Z,9.50
2017-11-05T12:55:51.320Z,9.50
2017-11-05T12:58:19.647Z,9.40
2017-11-05T13:00:47.456Z,9.40
2017-11-05T13:03:17.568Z,9.30
2017-11-05T13:05:45.128Z,9.30
2017-11-05T13:08:12.749Z,9.20
2017-11-05T13:10:40.346Z,9.20
2017-11-05T13:13:09.443Z,9.10
2017-11-05T13:15:37.205Z,9.10
2017-11-05T13:18:04.772Z,9.10
2017-11-05T13:20:32.974Z,9.20
2017-11-05T13:23:00.680Z,9.30
2017-11-05T13:25:28.248Z,9.20
2017-11-05T13:27:55.844Z,9.20
2017-11-05T13:30:24.383Z,9.20
2017-11-05T13:32:52.142Z,9.20
2017-11-05T13:35:19.812Z,9.20
2017-11-05T13:37:47.569Z,9.10
2017-11-05T13:40:16.408Z,9.10
2017-11-05T13:42:44.753Z,9.10
2017-11-05T13:45:13.355Z,9.10
2017-11-05T13:47:41.716Z,9.10
2017-11-05T13:50:09.300Z,9.10
2017-11-05T13:52:36.856Z,9.10
2017-11-05T13:55:04.506Z,9.10
2017-11-05T13:57:32.068Z,9.00
2017-11-05T13:59:59.660Z,8.90
2017-11-05T14:02:27.984Z,8.70
2017-11-05T14:04:55.564Z,8.60
2017-11-05T14:07:23.128Z,8.50
2017-11-05T14:09:50.910Z,8.40
2017-11-05T14:12:18.503Z,8.30
2017-11-05T14:14:46.152Z,8.20
2017-11-05T14:17:16.131Z,8.00
2017-11-05T14:19:43.741Z,8.00
2017-11-05T14:22:12.065Z,7.90
2017-11-05T14:24:39.821Z,7.90
2017-11-05T14:27:07.392Z,7.80
2017-11-05T14:29:35.166Z,7.80
2017-11-05T14:32:02.792Z,7.80
2017-11-05T14:34:30.367Z,7.70
2017-11-05T14:36:58.004Z,7.70
2017-11-05T14:39:25.596Z,7.60
2017-11-05T14:41:53.278Z,7.70
2017-11-05T14:44:22.365Z,7.60
2017-11-05T14:46:49.957Z,7.60
2017-11-05T14:49:18.311Z,7.60
2017-11-05T14:51:45.947Z,7.60
2017-11-05T14:54:15.193Z,7.60
2017-11-05T14:56:42.922Z,7.60
2017-11-05T14:59:10.483Z,7.60
2017-11-05T15:01:38.226Z,7.60
2017-11-05T15:04:05.797Z,7.50
2017-11-05T15:06:33.600Z,7.50
2017-11-05T15:09:01.157Z,7.40
2017-11-05T15:11:28.720Z,7.20
2017-11-05T15:13:56.307Z,7.10
2017-11-05T15:16:23.884Z,7.00
2017-11-05T15:18:51.486Z,7.00
2017-11-05T15:21:19.073Z,6.90
2017-11-05T15:23:46.633Z,6.80
2017-11-05T15:26:16.436Z,6.80
2017-11-05T15:28:44.000Z,6.80
2017-11-05T15:31:12.352Z,6.70
2017-11-05T15:33:39.908Z,6.70
2017-11-05T15:36:07.494Z,6.60
2017-11-05T15:38:35.060Z,6.60
2017-11-05T15:41:02.644Z,6.60
2017-11-05T15:43:30.969Z,6.60
2017-11-05T15:45:58.552Z,6.60
2017-11-05T15:48:26.116Z,6.70
2017-11-05T15:50:53.704Z,6.60
2017-11-05T15:53:22.060Z,6.60
2017-11-05T15:55:49.653Z,6.60
2017-11-05T15:58:17.980Z,6.70
2017-11-05T16:00:45.592Z,6.60
2017-11-05T16:03:15.731Z,6.70
2017-11-05T16:05:43.399Z,6.60
2017-11-05T16:08:11.075Z,6.70
2017-11-05T16:10:38.792Z,6.70
2017-11-05T16:13:07.119Z,6.60
2017-11-05T16:15:34.727Z,6.60
2017-11-05T16:18:03.056Z,6.60
2017-11-05T16:20:30.762Z,6.50
2017-11-05T16:22:58.483Z,6.60
2017-11-05T16:25:26.884Z,6.60
2017-11-05T16:27:54.560Z,6.50
2017-11-05T16:30:23.204Z,6.50
2017-11-05T16:32:50.772Z,6.50
2017-11-05T16:35:18.361Z,6.50
2017-11-05T16:37:45.972Z,6.50
2017-11-05T16:40:15.572Z,6.40
2017-11-05T16:42:43.187Z,6.40
2017-11-05T16:45:10.783Z,6.50
2017-11-05T16:47:39.113Z,6.40
2017-11-05T16:50:06.936Z,6.40
2017-11-05T16:52:35.281Z,6.40
2017-11-05T16:55:03.143Z,6.40
2017-11-05T16:57:30.711Z,6.40
2017-11-05T16:59:58.268Z,6.30
2017-11-05T17:02:26.119Z,6.40
2017-11-05T17:04:54.623Z,6.30
2017-11-05T17:07:22.352Z,6.30
2017-11-05T17:09:50.836Z,6.30
2017-11-05T17:12:18.561Z,6.30
2017-11-05T17:14:47.116Z,6.30
2017-11-05T17:17:15.628Z,6.30
2017-11-05T17:19:44.000Z,6.30
2017-11-05T17:22:12.348Z,6.30
2017-11-05T17:24:39.916Z,6.30
2017-11-05T17:27:08.268Z,6.20
2017-11-05T17:29:35.960Z,6.20
2017-11-05T17:32:03.796Z,6.20
2017-11-05T17:34:31.460Z,6.20
2017-11-05T17:36:59.327Z,6.20
2017-11-05T17:39:26.916Z,6.20
2017-11-05T17:41:54.711Z,6.10
2017-11-05T17:44:23.593Z,6.10
2017-11-05T17:46:52.040Z,6.10
2017-11-05T17:49:20.528Z,6.10
2017-11-05T17:51:48.144Z,6.10
2017-11-05T17:54:17.189Z,6.00
2017-11-05T17:56:44.820Z,6.00
2017-11-05T17:59:12.401Z,6.00
2017-11-05T18:01:40.016Z,6.00
2017-11-05T18:04:07.929Z,6.00
2017-11-05T18:06:35.489Z,6.00
2017-11-05T18:09:03.072Z,6.00
2017-11-05T18:11:30.698Z,6.00
2017-11-05T18:13:58.288Z,6.00
2017-11-05T18:16:25.852Z,6.00
2017-11-05T18:18:53.603Z,5.90
2017-11-05T18:21:21.164Z,5.90
2017-11-05T18:23:48.749Z,5.90
2017-11-05T18:26:16.857Z,5.90
2017-11-05T18:28:44.761Z,5.90
2017-11-05T18:31:12.391Z,5.90
2017-11-05T18:33:40.056Z,5.90
2017-11-05T18:36:07.636Z,5.80
2017-11-05T18:38:35.220Z,5.80
2017-11-05T18:41:02.781Z,5.70
2017-11-05T18:43:30.364Z,5.70
2017-11-05T18:45:58.747Z,5.60
2017-11-05T18:48:27.271Z,5.70
2017-11-05T18:50:55.667Z,5.70
2017-11-05T18:53:23.235Z,5.60
2017-11-05T18:55:50.824Z,5.70
2017-11-05T18:58:19.207Z,5.70
2017-11-05T19:00:47.612Z,5.70
2017-11-05T19:03:18.500Z,5.70
2017-11-05T19:05:46.585Z,5.70
2017-11-05T19:08:16.596Z,5.70
2017-11-05T19:10:44.178Z,5.70
2017-11-05T19:13:12.556Z,5.70
2017-11-05T19:15:41.053Z,5.80
2017-11-05T19:18:08.663Z,5.80
2017-11-05T19:20:36.254Z,5.80
2017-11-05T19:23:04.067Z,5.80
2017-11-05T19:25:31.711Z,5.80
2017-11-05T19:27:59.273Z,5.80
2017-11-05T19:30:26.868Z,5.80
2017-11-05T19:32:54.645Z,5.80
2017-11-05T19:35:22.284Z,5.90
2017-11-05T19:37:49.849Z,5.80
2017-11-05T19:40:17.491Z,5.80
2017-11-05T19:42:45.105Z,5.90
2017-11-05T19:45:12.748Z,5.90
2017-11-05T19:47:40.390Z,5.90
2017-11-05T19:50:08.364Z,5.90
2017-11-05T19:52:36.000Z,5.80
2017-11-05T19:55:03.699Z,5.80
2017-11-05T19:57:31.385Z,5.80
2017-11-05T19:59:59.179Z,5.80
2017-11-05T20:02:27.595Z,5.90
2017-11-05T20:04:55.164Z,5.80
2017-11-05T20:07:22.819Z,5.80
2017-11-05T20:09:50.520Z,5.80
2017-11-05T20:12:18.164Z,5.80
2017-11-05T20:14:46.024Z,5.80
2017-11-05T20:17:15.643Z,5.70
2017-11-05T20:19:43.864Z,5.70
2017-11-05T20:22:12.245Z,5.70
2017-11-05T20:24:40.643Z,5.70
2017-11-05T20:27:08.330Z,5.70
2017-11-05T20:29:35.989Z,5.70
2017-11-05T20:32:03.557Z,5.60
2017-11-05T20:34:31.251Z,5.60
2017-11-05T20:36:59.689Z,5.60
2017-11-05T20:39:27.281Z,5.50
2017-11-05T20:41:55.125Z,5.60
2017-11-05T20:44:22.992Z,5.60
2017-11-05T20:46:50.966Z,5.50
2017-11-05T20:49:18.891Z,5.50
2017-11-05T20:51:46.500Z,5.50
2017-11-05T20:54:15.043Z,5.50
2017-11-05T20:56:42.744Z,5.50
2017-11-05T20:59:10.398Z,5.50
2017-11-05T21:01:38.037Z,5.60
2017-11-05T21:04:05.728Z,5.50
2017-11-05T21:06:33.821Z,5.50
2017-11-05T21:09:01.436Z,5.50
2017-11-05T21:11:29.076Z,5.50
2017-11-05T21:13:57.459Z,5.50
2017-11-05T21:16:25.820Z,5.50
2017-11-05T21:18:53.386Z,5.50
2017-11-05T21:21:21.004Z,5.50
2017-11-05T21:23:48.623Z,5.50
2017-11-05T21:26:18.076Z,5.40
2017-11-05T21:28:46.015Z,5.40
2017-11-05T21:31:15.824Z,5.40
2017-11-05T21:33:43.422Z,5.40
2017-11-05T21:36:11.084Z,5.40
2017-11-05T21:38:38.705Z,5.40
2017-11-05T21:41:06.285Z,5.30
2017-11-05T21:43:34.066Z,5.30
2017-11-05T21:46:01.724Z,5.30
2017-11-05T21:48:29.425Z,5.30
2017-11-05T21:50:56.996Z,5.30
2017-11-05T21:53:24.752Z,5.20
2017-11-05T21:55:52.367Z,5.20
2017-11-05T21:58:19.988Z,5.20
2017-11-05T22:00:48.344Z,5.10
2017-11-05T22:03:16.836Z,5.10
2017-11-05T22:05:44.427Z,5.10
2017-11-05T22:08:13.734Z,5.00
2017-11-05T22:10:41.456Z,5.00
2017-11-05T22:13:09.025Z,5.00
2017-11-05T22:15:36.600Z,5.00
2017-11-05T22:18:04.961Z,5.10
2017-11-05T22:20:33.320Z,5.10
2017-11-05T22:23:00.907Z,5.10
2017-11-05T22:25:28.528Z,5.10
2017-11-05T22:27:56.100Z,5.10
2017-11-05T22:30:25.277Z,5.10
2017-11-05T22:32:52.884Z,5.10
2017-11-05T22:35:20.458Z,5.10
2017-11-05T22:37:48.817Z,5.10
2017-11-05T22:40:17.273Z,5.10
2017-11-05T22:42:44.859Z,5.10
2017-11-05T22:45:12.437Z,5.10
2017-11-05T22:47:40.192Z,5.10
2017-11-05T22:50:07.768Z,5.10
2017-11-05T22:52:36.138Z,5.10
2017-11-05T22:55:03.796Z,5.10
2017-11-05T22:57:32.888Z,5.10
2017-11-05T23:00:00.488Z,5.10
2017-11-05T23:02:28.056Z,5.10
2017-11-05T23:04:55.647Z,5.10
2017-11-05T23:07:23.226Z,5.10
2017-11-05T23:09:50.816Z,5.00
2017-11-05T23:12:19.151Z,5.00
2017-11-05T23:14:46.748Z,5.00
2017-11-05T23:17:14.563Z,5.00
2017-11-05T23:19:42.196Z,5.00
2017-11-05T23:22:09.763Z,5.00
2017-11-05T23:24:37.329Z,5.00
2017-11-05T23:27:04.921Z,4.90
2017-11-05T23:29:32.480Z,4.90
2017-11-05T23:32:00.064Z,4.90
2017-11-05T23:34:27.632Z,4.90
2017-11-05T23:36:55.388Z,4.90
2017-11-05T23:39:22.956Z,5.00
2017-11-05T23:41:50.521Z,4.90
2017-11-05T23:44:18.893Z,4.90
2017-11-05T23:46:46.465Z,4.90
2017-11-05T23:49:15.756Z,4.80
2017-11-05T23:51:43.591Z,4.90
2017-11-05T23:54:11.169Z,4.80
2017-11-05T23:56:38.952Z,4.80
2017-11-05T23:59:08.016Z,4.80
